TimeCEST,TemperatureF,Dew PointF,Humidity,Sea Level PressureIn,VisibilityMPH,Wind Direction,Wind SpeedMPH,Gust SpeedMPH,PrecipitationIn,Events,Conditions,WindDirDegrees,DateUTC
12:00 AM,68.0,62.6,83,30.09,6.2,NNW,8.1,-,N/A,,Overcast,340,2012-10-06 22:00:00
12:30 AM,68.0,62.6,83,30.09,6.2,North,6.9,-,N/A,,Overcast,360,2012-10-06 22:30:00
1:00 AM,68.0,62.6,83,30.09,6.2,NNE,9.2,-,N/A,,Overcast,20,2012-10-06 23:00:00
1:30 AM,68.0,62.6,83,30.09,6.2,North,6.9,-,N/A,,Overcast,10,2012-10-06 23:30:00
2:00 AM,67,62,79,30.11,22,North,4.6,,,,Clear,10,2012-10-07 00:00:00
2:00 AM,68.0,62.6,83,30.09,6.2,North,4.6,-,N/A,,Overcast,10,2012-10-07 00:00:00
2:30 AM,66.2,62.6,88,30.09,6.2,Variable,2.3,-,N/A,,Overcast,0,2012-10-07 00:30:00
3:00 AM,66.2,60.8,83,30.09,6.2,Variable,2.3,-,N/A,,Unknown,0,2012-10-07 01:00:00
3:30 AM,66.2,62.6,88,30.09,6.2,SW,2.3,-,N/A,,Unknown,220,2012-10-07 01:30:00
4:00 AM,66.2,62.6,88,30.09,6.2,SSW,2.3,-,N/A,,Unknown,210,2012-10-07 02:00:00
4:30 AM,64.4,62.6,94,30.09,6.2,WSW,3.5,-,N/A,,Unknown,250,2012-10-07 02:30:00
5:00 AM,64.4,60.8,88,30.09,6.2,WSW,3.5,-,N/A,,Unknown,240,2012-10-07 03:00:00
5:30 AM,64.4,62.6,94,30.06,6.2,WSW,3.5,-,N/A,,Unknown,240,2012-10-07 03:30:00
6:00 AM,64.4,60.8,88,30.06,6.2,WSW,3.5,-,N/A,,Unknown,240,2012-10-07 04:00:00
6:30 AM,64.4,60.8,88,30.06,6.2,WSW,3.5,-,N/A,,Unknown,250,2012-10-07 04:30:00
7:00 AM,64.4,60.8,88,30.06,-9999.0,West,3.5,-,N/A,,Clear,280,2012-10-07 05:00:00
7:30 AM,64.4,60.8,88,30.09,-9999.0,South,1.2,-,N/A,,Clear,190,2012-10-07 05:30:00
8:00 AM,64,61,88,30.09,9,SSW,2.3,,,,Mostly Cloudy,210,2012-10-07 06:00:00
8:00 AM,64.4,60.8,88,30.06,-9999.0,Variable,2.3,-,N/A,,Clear,0,2012-10-07 06:00:00
8:30 AM,64.4,60.8,88,30.09,-9999.0,WSW,3.5,-,N/A,,Clear,240,2012-10-07 06:30:00
9:00 AM,66.2,62.6,88,30.09,-9999.0,South,4.6,-,N/A,,Clear,170,2012-10-07 07:00:00
9:30 AM,66.2,62.6,88,30.09,-9999.0,South,4.6,-,N/A,,Clear,170,2012-10-07 07:30:00
10:00 AM,69.8,62.6,78,30.09,-9999.0,South,3.5,-,N/A,,Clear,190,2012-10-07 08:00:00
10:30 AM,71.6,60.8,69,30.09,-9999.0,SW,3.5,-,N/A,,Clear,230,2012-10-07 08:30:00
11:00 AM,73.4,59.0,61,30.09,-9999.0,SSW,4.6,-,N/A,,Clear,210,2012-10-07 09:00:00
11:30 AM,75.2,57.2,53,30.09,-9999.0,Variable,3.5,-,N/A,,Clear,0,2012-10-07 09:30:00
12:00 PM,77.0,57.2,50,30.09,-9999.0,NNW,10.4,-,N/A,,Clear,330,2012-10-07 10:00:00
12:30 PM,77.0,57.2,50,30.09,-9999.0,NNW,9.2,-,N/A,,Clear,340,2012-10-07 10:30:00
1:00 PM,77.0,57.2,50,30.09,6.2,NNE,4.6,-,N/A,,Mostly Cloudy,20,2012-10-07 11:00:00
1:30 PM,80.6,57.2,45,30.09,6.2,WNW,9.2,-,N/A,,Mostly Cloudy,300,2012-10-07 11:30:00
2:00 PM,80,57,35,30.09,12,North,6.9,,,,Mostly Cloudy,350,2012-10-07 12:00:00
2:00 PM,80.6,57.2,45,30.09,6.2,NNW,6.9,-,N/A,,Mostly Cloudy,340,2012-10-07 12:00:00
3:30 PM,80.6,57.2,45,30.06,6.2,NW,17.3,-,N/A,,Mostly Cloudy,310,2012-10-07 13:30:00
4:00 PM,78.8,59.0,51,30.06,6.2,WNW,17.3,-,N/A,,Mostly Cloudy,300,2012-10-07 14:00:00
4:30 PM,78.8,59.0,51,30.06,6.2,NW,12.7,-,N/A,,Mostly Cloudy,320,2012-10-07 14:30:00
5:00 PM,78.8,59.0,51,30.06,6.2,NW,11.5,-,N/A,,Mostly Cloudy,320,2012-10-07 15:00:00
5:30 PM,78.8,59.0,51,30.06,6.2,NW,11.5,-,N/A,,Mostly Cloudy,320,2012-10-07 15:30:00
6:00 PM,77.0,59.0,54,30.06,6.2,NW,12.7,-,N/A,,Mostly Cloudy,310,2012-10-07 16:00:00
6:30 PM,77.0,59.0,54,30.06,6.2,NW,16.1,-,N/A,,Mostly Cloudy,320,2012-10-07 16:30:00
7:00 PM,77.0,59.0,54,30.09,6.2,NW,11.5,-,N/A,,Mostly Cloudy,310,2012-10-07 17:00:00
7:30 PM,75.2,59.0,57,30.09,6.2,NNW,11.5,-,N/A,,Unknown,330,2012-10-07 17:30:00
8:00 PM,75,59,47,30.12,37,NNW,6.9,,,,Clear,340,2012-10-07 18:00:00
8:00 PM,75.2,59.0,57,30.12,6.2,NNW,6.9,-,N/A,,Unknown,340,2012-10-07 18:00:00
8:30 PM,73.4,59.0,61,30.12,6.2,Variable,3.5,-,N/A,,Mostly Cloudy,0,2012-10-07 18:30:00
9:00 PM,73.4,59.0,61,30.12,6.2,Variable,1.2,-,N/A,,Mostly Cloudy,0,2012-10-07 19:00:00
9:30 PM,73.4,60.8,65,30.12,6.2,Variable,3.5,-,N/A,,Overcast,0,2012-10-07 19:30:00
10:00 PM,73.4,60.8,65,30.12,6.2,Variable,2.3,-,N/A,,Overcast,0,2012-10-07 20:00:00
10:30 PM,73.4,62.6,69,30.12,6.2,Variable,2.3,-,N/A,,Overcast,0,2012-10-07 20:30:00
11:00 PM,73.4,62.6,69,30.12,6.2,West,5.8,-,N/A,,Scattered Clouds,280,2012-10-07 21:00:00
11:30 PM,73.4,62.6,69,30.12,6.2,NNW,8.1,-,N/A,,Unknown,340,2012-10-07 21:30:00